sensor_id;sensor_type;location;lat;lon;timestamp;temperature;humidity
22008;DHT22;11168;56.976;24.168;2023-12-07T00:00:19;-5.40;99.90
22008;DHT22;11168;56.976;24.168;2023-12-07T00:02:46;-5.40;99.90
22008;DHT22;11168;56.976;24.168;2023-12-07T00:05:13;-5.30;99.90
22008;DHT22;11168;56.976;24.168;2023-12-07T00:07:40;-5.40;99.90
22008;DHT22;11168;56.976;24.168;2023-12-07T00:10:08;-5.30;99.90
22008;DHT22;11168;56.976;24.168;2023-12-07T00:12:35;-5.30;99.90
22008;DHT22;11168;56.976;24.168;2023-12-07T00:15:02;-5.30;99.90
22008;DHT22;11168;56.976;24.168;2023-12-07T00:17:29;-5.30;99.90
22008;DHT22;11168;56.976;24.168;2023-12-07T00:19:56;-5.40;99.90
22008;DHT22;11168;56.976;24.168;2023-12-07T00:22:26;-5.40;99.90
22008;DHT22;11168;56.976;24.168;2023-12-07T00:24:55;-5.50;99.90
22008;DHT22;11168;56.976;24.168;2023-12-07T00:27:24;-5.50;99.90
22008;DHT22;11168;56.976;24.168;2023-12-07T00:29:51;-5.40;99.90
22008;DHT22;11168;56.976;24.168;2023-12-07T00:32:19;-5.40;99.90
22008;DHT22;11168;56.976;24.168;2023-12-07T00:34:46;-5.40;99.90
22008;DHT22;11168;56.976;24.168;2023-12-07T00:37:13;-5.40;99.90
22008;DHT22;11168;56.976;24.168;2023-12-07T00:39:43;-5.40;99.90
22008;DHT22;11168;56.976;24.168;2023-12-07T00:42:10;-5.40;99.90
22008;DHT22;11168;56.976;24.168;2023-12-07T00:44:41;-5.40;99.90
22008;DHT22;11168;56.976;24.168;2023-12-07T00:47:09;-5.40;99.90
22008;DHT22;11168;56.976;24.168;2023-12-07T00:49:38;-5.40;99.90
22008;DHT22;11168;56.976;24.168;2023-12-07T00:52:09;-5.40;99.90
22008;DHT22;11168;56.976;24.168;2023-12-07T00:54:38;-5.40;99.90
22008;DHT22;11168;56.976;24.168;2023-12-07T00:57:08;-5.40;99.90
22008;DHT22;11168;56.976;24.168;2023-12-07T00:59:35;-5.40;99.90
22008;DHT22;11168;56.976;24.168;2023-12-07T01:02:04;-5.30;99.90
22008;DHT22;11168;56.976;24.168;2023-12-07T01:04:32;-5.40;99.90
22008;DHT22;11168;56.976;24.168;2023-12-07T01:07:00;-5.40;99.90
22008;DHT22;11168;56.976;24.168;2023-12-07T01:09:29;-5.40;99.90
22008;DHT22;11168;56.976;24.168;2023-12-07T01:11:56;-5.40;99.90
22008;DHT22;11168;56.976;24.168;2023-12-07T01:14:25;-5.40;99.90
22008;DHT22;11168;56.976;24.168;2023-12-07T01:16:52;-5.40;99.90
22008;DHT22;11168;56.976;24.168;2023-12-07T01:19:19;-5.30;99.90
22008;DHT22;11168;56.976;24.168;2023-12-07T01:21:46;-5.40;99.90
22008;DHT22;11168;56.976;24.168;2023-12-07T01:24:13;-5.30;99.90
22008;DHT22;11168;56.976;24.168;2023-12-07T01:26:43;-5.40;99.90
22008;DHT22;11168;56.976;24.168;2023-12-07T01:29:13;-5.40;99.90
22008;DHT22;11168;56.976;24.168;2023-12-07T01:31:40;-5.40;99.90
22008;DHT22;11168;56.976;24.168;2023-12-07T01:34:08;-5.40;99.90
22008;DHT22;11168;56.976;24.168;2023-12-07T01:36:35;-5.40;99.90
22008;DHT22;11168;56.976;24.168;2023-12-07T01:39:04;-5.40;99.90
22008;DHT22;11168;56.976;24.168;2023-12-07T01:41:32;-5.40;99.90
22008;DHT22;11168;56.976;24.168;2023-12-07T01:44:00;-5.40;99.90
22008;DHT22;11168;56.976;24.168;2023-12-07T01:46:28;-5.40;99.90
22008;DHT22;11168;56.976;24.168;2023-12-07T01:48:55;-5.30;99.90
22008;DHT22;11168;56.976;24.168;2023-12-07T01:51:23;-5.40;99.90
22008;DHT22;11168;56.976;24.168;2023-12-07T01:53:51;-5.40;99.90
22008;DHT22;11168;56.976;24.168;2023-12-07T01:56:18;-5.40;99.90
22008;DHT22;11168;56.976;24.168;2023-12-07T01:58:46;-5.40;99.90
22008;DHT22;11168;56.976;24.168;2023-12-07T02:01:13;-5.40;99.90
22008;DHT22;11168;56.976;24.168;2023-12-07T02:03:43;-5.30;99.90
22008;DHT22;11168;56.976;24.168;2023-12-07T02:06:11;-5.30;99.90
22008;DHT22;11168;56.976;24.168;2023-12-07T02:08:40;-5.40;99.90
22008;DHT22;11168;56.976;24.168;2023-12-07T02:11:09;-5.40;99.90
22008;DHT22;11168;56.976;24.168;2023-12-07T02:13:38;-5.40;99.90
22008;DHT22;11168;56.976;24.168;2023-12-07T02:22:07;-5.30;99.90
22008;DHT22;11168;56.976;24.168;2023-12-07T02:24:38;-5.30;99.90
22008;DHT22;11168;56.976;24.168;2023-12-07T02:27:10;-5.40;99.90
22008;DHT22;11168;56.976;24.168;2023-12-07T02:29:37;-5.40;99.90
22008;DHT22;11168;56.976;24.168;2023-12-07T02:32:06;-5.40;99.90
22008;DHT22;11168;56.976;24.168;2023-12-07T02:34:34;-5.40;99.90
22008;DHT22;11168;56.976;24.168;2023-12-07T02:37:04;-5.40;99.90
22008;DHT22;11168;56.976;24.168;2023-12-07T02:39:32;-5.40;99.90
22008;DHT22;11168;56.976;24.168;2023-12-07T02:42:00;-5.40;99.90
22008;DHT22;11168;56.976;24.168;2023-12-07T02:44:28;-5.40;99.90
22008;DHT22;11168;56.976;24.168;2023-12-07T02:46:55;-5.40;99.90
22008;DHT22;11168;56.976;24.168;2023-12-07T02:49:22;-5.40;99.90
22008;DHT22;11168;56.976;24.168;2023-12-07T02:51:49;-5.40;99.90
22008;DHT22;11168;56.976;24.168;2023-12-07T02:54:16;-5.30;99.90
22008;DHT22;11168;56.976;24.168;2023-12-07T02:56:48;-5.30;99.90
22008;DHT22;11168;56.976;24.168;2023-12-07T02:59:15;-5.30;99.90
22008;DHT22;11168;56.976;24.168;2023-12-07T03:01:43;-5.30;99.90
22008;DHT22;11168;56.976;24.168;2023-12-07T03:04:10;-5.30;99.90
22008;DHT22;11168;56.976;24.168;2023-12-07T03:06:38;-5.20;99.90
22008;DHT22;11168;56.976;24.168;2023-12-07T03:09:04;-5.30;99.90
22008;DHT22;11168;56.976;24.168;2023-12-07T03:11:31;-5.30;99.90
22008;DHT22;11168;56.976;24.168;2023-12-07T03:13:58;-5.30;99.90
22008;DHT22;11168;56.976;24.168;2023-12-07T03:16:25;-5.30;99.90
22008;DHT22;11168;56.976;24.168;2023-12-07T03:18:52;-5.30;99.90
22008;DHT22;11168;56.976;24.168;2023-12-07T03:21:20;-5.30;99.90
22008;DHT22;11168;56.976;24.168;2023-12-07T03:23:49;-5.30;99.90
22008;DHT22;11168;56.976;24.168;2023-12-07T03:26:16;-5.40;99.90
22008;DHT22;11168;56.976;24.168;2023-12-07T03:28:44;-5.40;99.90
22008;DHT22;11168;56.976;24.168;2023-12-07T03:31:13;-5.40;99.90
22008;DHT22;11168;56.976;24.168;2023-12-07T03:33:41;-5.40;99.90
22008;DHT22;11168;56.976;24.168;2023-12-07T03:36:12;-5.40;99.90
22008;DHT22;11168;56.976;24.168;2023-12-07T03:38:39;-5.40;99.90
22008;DHT22;11168;56.976;24.168;2023-12-07T03:41:06;-5.40;99.90
22008;DHT22;11168;56.976;24.168;2023-12-07T03:43:36;-5.40;99.90
22008;DHT22;11168;56.976;24.168;2023-12-07T03:46:06;-5.30;99.90
22008;DHT22;11168;56.976;24.168;2023-12-07T03:48:34;-5.30;99.90
22008;DHT22;11168;56.976;24.168;2023-12-07T03:51:01;-5.40;99.90
22008;DHT22;11168;56.976;24.168;2023-12-07T03:53:28;-5.40;99.90
22008;DHT22;11168;56.976;24.168;2023-12-07T03:55:58;-5.40;99.90
22008;DHT22;11168;56.976;24.168;2023-12-07T03:58:25;-5.40;99.90
22008;DHT22;11168;56.976;24.168;2023-12-07T04:00:52;-5.50;99.90
22008;DHT22;11168;56.976;24.168;2023-12-07T04:03:21;-5.50;99.90
22008;DHT22;11168;56.976;24.168;2023-12-07T04:05:48;-5.50;99.90
22008;DHT22;11168;56.976;24.168;2023-12-07T04:08:16;-5.50;99.90
22008;DHT22;11168;56.976;24.168;2023-12-07T04:10:45;-5.50;99.90
22008;DHT22;11168;56.976;24.168;2023-12-07T04:13:18;-5.50;99.90
22008;DHT22;11168;56.976;24.168;2023-12-07T04:15:45;-5.50;99.90
22008;DHT22;11168;56.976;24.168;2023-12-07T04:18:13;-5.50;99.90
22008;DHT22;11168;56.976;24.168;2023-12-07T04:20:43;-5.40;99.90
22008;DHT22;11168;56.976;24.168;2023-12-07T04:23:10;-5.50;99.90
22008;DHT22;11168;56.976;24.168;2023-12-07T04:25:41;-5.40;99.90
22008;DHT22;11168;56.976;24.168;2023-12-07T04:28:08;-5.50;99.90
22008;DHT22;11168;56.976;24.168;2023-12-07T04:30:36;-5.50;99.90
22008;DHT22;11168;56.976;24.168;2023-12-07T04:33:03;-5.50;99.90
22008;DHT22;11168;56.976;24.168;2023-12-07T04:35:31;-5.50;99.90
22008;DHT22;11168;56.976;24.168;2023-12-07T04:37:58;-5.50;99.90
22008;DHT22;11168;56.976;24.168;2023-12-07T04:40:25;-5.50;99.90
22008;DHT22;11168;56.976;24.168;2023-12-07T04:42:53;-5.50;99.90
22008;DHT22;11168;56.976;24.168;2023-12-07T04:45:20;-5.40;99.90
22008;DHT22;11168;56.976;24.168;2023-12-07T04:47:47;-5.40;99.90
22008;DHT22;11168;56.976;24.168;2023-12-07T04:50:14;-5.40;99.90
22008;DHT22;11168;56.976;24.168;2023-12-07T04:52:41;-5.50;99.90
22008;DHT22;11168;56.976;24.168;2023-12-07T04:55:09;-5.50;99.90
22008;DHT22;11168;56.976;24.168;2023-12-07T04:57:36;-5.40;99.90
22008;DHT22;11168;56.976;24.168;2023-12-07T05:00:04;-5.50;99.90
22008;DHT22;11168;56.976;24.168;2023-12-07T05:02:36;-5.50;99.90
22008;DHT22;11168;56.976;24.168;2023-12-07T05:05:04;-5.50;99.90
22008;DHT22;11168;56.976;24.168;2023-12-07T05:07:32;-5.50;99.90
22008;DHT22;11168;56.976;24.168;2023-12-07T05:10:02;-5.50;99.90
22008;DHT22;11168;56.976;24.168;2023-12-07T05:12:30;-5.50;99.90
22008;DHT22;11168;56.976;24.168;2023-12-07T05:14:57;-5.50;99.90
22008;DHT22;11168;56.976;24.168;2023-12-07T05:17:24;-5.50;99.90
22008;DHT22;11168;56.976;24.168;2023-12-07T05:19:51;-5.50;99.90
22008;DHT22;11168;56.976;24.168;2023-12-07T05:22:21;-5.50;99.90
22008;DHT22;11168;56.976;24.168;2023-12-07T05:24:49;-5.40;99.90
22008;DHT22;11168;56.976;24.168;2023-12-07T05:27:17;-5.40;99.90
22008;DHT22;11168;56.976;24.168;2023-12-07T05:29:48;-5.40;99.90
22008;DHT22;11168;56.976;24.168;2023-12-07T05:32:15;-5.50;99.90
22008;DHT22;11168;56.976;24.168;2023-12-07T05:34:42;-5.50;99.90
22008;DHT22;11168;56.976;24.168;2023-12-07T05:37:09;-5.50;99.90
22008;DHT22;11168;56.976;24.168;2023-12-07T05:39:37;-5.40;99.90
22008;DHT22;11168;56.976;24.168;2023-12-07T05:42:05;-5.50;99.90
22008;DHT22;11168;56.976;24.168;2023-12-07T05:44:32;-5.40;99.90
22008;DHT22;11168;56.976;24.168;2023-12-07T05:46:59;-5.40;99.90
22008;DHT22;11168;56.976;24.168;2023-12-07T05:49:28;-5.40;99.90
22008;DHT22;11168;56.976;24.168;2023-12-07T05:51:55;-5.40;99.90
22008;DHT22;11168;56.976;24.168;2023-12-07T05:54:22;-5.40;99.90
22008;DHT22;11168;56.976;24.168;2023-12-07T05:56:50;-5.40;99.90
22008;DHT22;11168;56.976;24.168;2023-12-07T05:59:18;-5.50;99.90
22008;DHT22;11168;56.976;24.168;2023-12-07T06:01:46;-5.40;99.90
22008;DHT22;11168;56.976;24.168;2023-12-07T06:04:13;-5.40;99.90
22008;DHT22;11168;56.976;24.168;2023-12-07T06:06:44;-5.40;99.90
22008;DHT22;11168;56.976;24.168;2023-12-07T06:09:11;-5.40;99.90
22008;DHT22;11168;56.976;24.168;2023-12-07T06:11:38;-5.40;99.90
22008;DHT22;11168;56.976;24.168;2023-12-07T06:14:08;-5.40;99.90
22008;DHT22;11168;56.976;24.168;2023-12-07T06:16:35;-5.40;99.90
22008;DHT22;11168;56.976;24.168;2023-12-07T06:19:03;-5.40;99.90
22008;DHT22;11168;56.976;24.168;2023-12-07T06:21:31;-5.40;99.90
22008;DHT22;11168;56.976;24.168;2023-12-07T06:23:58;-5.40;99.90
22008;DHT22;11168;56.976;24.168;2023-12-07T06:26:26;-5.40;99.90
22008;DHT22;11168;56.976;24.168;2023-12-07T06:28:54;-5.40;99.90
22008;DHT22;11168;56.976;24.168;2023-12-07T06:31:21;-5.40;99.90
22008;DHT22;11168;56.976;24.168;2023-12-07T06:33:48;-5.40;99.90
22008;DHT22;11168;56.976;24.168;2023-12-07T06:36:23;-5.30;99.90
22008;DHT22;11168;56.976;24.168;2023-12-07T06:38:50;-5.40;99.90
22008;DHT22;11168;56.976;24.168;2023-12-07T06:41:18;-5.40;99.90
22008;DHT22;11168;56.976;24.168;2023-12-07T06:43:45;-5.40;99.90
22008;DHT22;11168;56.976;24.168;2023-12-07T06:46:13;-5.40;99.90
22008;DHT22;11168;56.976;24.168;2023-12-07T06:48:41;-5.40;99.90
22008;DHT22;11168;56.976;24.168;2023-12-07T06:51:08;-5.40;99.90
22008;DHT22;11168;56.976;24.168;2023-12-07T06:53:38;-5.30;99.90
22008;DHT22;11168;56.976;24.168;2023-12-07T06:56:08;-5.30;99.90
22008;DHT22;11168;56.976;24.168;2023-12-07T06:58:35;-5.30;99.90
22008;DHT22;11168;56.976;24.168;2023-12-07T07:01:02;-5.30;99.90
22008;DHT22;11168;56.976;24.168;2023-12-07T07:03:30;-5.30;99.90
22008;DHT22;11168;56.976;24.168;2023-12-07T07:05:57;-5.30;99.90
22008;DHT22;11168;56.976;24.168;2023-12-07T07:08:26;-5.40;99.90
22008;DHT22;11168;56.976;24.168;2023-12-07T07:10:53;-5.30;99.90
22008;DHT22;11168;56.976;24.168;2023-12-07T07:13:20;-5.30;99.90
22008;DHT22;11168;56.976;24.168;2023-12-07T07:15:48;-5.40;99.90
22008;DHT22;11168;56.976;24.168;2023-12-07T07:18:15;-5.30;99.90
22008;DHT22;11168;56.976;24.168;2023-12-07T07:20:43;-5.30;99.90
22008;DHT22;11168;56.976;24.168;2023-12-07T07:23:11;-5.30;99.90
22008;DHT22;11168;56.976;24.168;2023-12-07T07:25:40;-5.30;99.90
22008;DHT22;11168;56.976;24.168;2023-12-07T07:28:09;-5.30;99.90
22008;DHT22;11168;56.976;24.168;2023-12-07T07:30:36;-5.30;99.90
22008;DHT22;11168;56.976;24.168;2023-12-07T07:33:04;-5.30;99.90
22008;DHT22;11168;56.976;24.168;2023-12-07T07:35:31;-5.30;99.90
22008;DHT22;11168;56.976;24.168;2023-12-07T07:37:58;-5.20;99.90
22008;DHT22;11168;56.976;24.168;2023-12-07T07:40:25;-5.20;99.90
22008;DHT22;11168;56.976;24.168;2023-12-07T07:42:53;-5.20;99.90
22008;DHT22;11168;56.976;24.168;2023-12-07T07:45:20;-5.20;99.90
22008;DHT22;11168;56.976;24.168;2023-12-07T07:47:47;-5.10;99.90
22008;DHT22;11168;56.976;24.168;2023-12-07T07:50:15;-5.20;99.90
22008;DHT22;11168;56.976;24.168;2023-12-07T07:52:44;-5.10;99.90
22008;DHT22;11168;56.976;24.168;2023-12-07T07:55:11;-5.10;99.90
22008;DHT22;11168;56.976;24.168;2023-12-07T07:57:39;-5.00;99.90
22008;DHT22;11168;56.976;24.168;2023-12-07T08:00:06;-5.10;99.90
22008;DHT22;11168;56.976;24.168;2023-12-07T08:02:36;-5.10;99.90
22008;DHT22;11168;56.976;24.168;2023-12-07T08:05:08;-5.10;99.90
22008;DHT22;11168;56.976;24.168;2023-12-07T08:07:36;-5.00;99.90
22008;DHT22;11168;56.976;24.168;2023-12-07T08:10:03;-5.00;99.90
22008;DHT22;11168;56.976;24.168;2023-12-07T08:12:30;-5.10;99.90
22008;DHT22;11168;56.976;24.168;2023-12-07T08:14:57;-5.00;99.90
22008;DHT22;11168;56.976;24.168;2023-12-07T08:17:25;-5.00;99.90
22008;DHT22;11168;56.976;24.168;2023-12-07T08:19:53;-5.00;99.90
22008;DHT22;11168;56.976;24.168;2023-12-07T08:22:21;-5.00;99.90
22008;DHT22;11168;56.976;24.168;2023-12-07T08:24:48;-4.90;99.90
22008;DHT22;11168;56.976;24.168;2023-12-07T08:27:33;-4.90;99.90
22008;DHT22;11168;56.976;24.168;2023-12-07T08:30:01;-4.90;99.90
22008;DHT22;11168;56.976;24.168;2023-12-07T08:32:29;-4.90;99.90
22008;DHT22;11168;56.976;24.168;2023-12-07T08:34:56;-4.90;99.90
22008;DHT22;11168;56.976;24.168;2023-12-07T08:37:23;-4.90;99.90
22008;DHT22;11168;56.976;24.168;2023-12-07T08:39:51;-4.80;99.90
22008;DHT22;11168;56.976;24.168;2023-12-07T08:42:19;-4.80;99.90
22008;DHT22;11168;56.976;24.168;2023-12-07T08:44:46;-4.80;99.90
22008;DHT22;11168;56.976;24.168;2023-12-07T08:47:13;-4.70;99.90
22008;DHT22;11168;56.976;24.168;2023-12-07T08:49:40;-4.70;99.90
22008;DHT22;11168;56.976;24.168;2023-12-07T08:52:08;-4.70;99.90
22008;DHT22;11168;56.976;24.168;2023-12-07T08:54:56;-4.70;99.90
22008;DHT22;11168;56.976;24.168;2023-12-07T08:57:23;-4.60;99.90
22008;DHT22;11168;56.976;24.168;2023-12-07T08:59:51;-4.60;99.90
22008;DHT22;11168;56.976;24.168;2023-12-07T09:02:20;-4.60;99.90
22008;DHT22;11168;56.976;24.168;2023-12-07T09:05:07;-4.70;99.90
22008;DHT22;11168;56.976;24.168;2023-12-07T09:07:37;-4.60;99.90
22008;DHT22;11168;56.976;24.168;2023-12-07T09:10:04;-4.50;99.90
22008;DHT22;11168;56.976;24.168;2023-12-07T09:12:32;-4.50;99.90
22008;DHT22;11168;56.976;24.168;2023-12-07T09:15:06;-4.50;99.90
22008;DHT22;11168;56.976;24.168;2023-12-07T09:17:35;-4.50;99.90
22008;DHT22;11168;56.976;24.168;2023-12-07T09:20:03;-4.50;99.90
22008;DHT22;11168;56.976;24.168;2023-12-07T09:22:30;-4.40;99.90
22008;DHT22;11168;56.976;24.168;2023-12-07T09:25:04;-4.40;99.90
22008;DHT22;11168;56.976;24.168;2023-12-07T09:27:32;-4.40;99.90
22008;DHT22;11168;56.976;24.168;2023-12-07T09:30:02;-4.40;99.90
22008;DHT22;11168;56.976;24.168;2023-12-07T09:32:29;-4.30;99.90
22008;DHT22;11168;56.976;24.168;2023-12-07T09:35:04;-4.30;99.90
22008;DHT22;11168;56.976;24.168;2023-12-07T09:37:34;-4.30;99.90
22008;DHT22;11168;56.976;24.168;2023-12-07T09:40:02;-4.30;99.90
22008;DHT22;11168;56.976;24.168;2023-12-07T09:42:31;-4.40;99.90
22008;DHT22;11168;56.976;24.168;2023-12-07T09:45:03;-4.30;99.90
22008;DHT22;11168;56.976;24.168;2023-12-07T09:47:33;-4.30;99.90
22008;DHT22;11168;56.976;24.168;2023-12-07T09:50:06;-4.20;99.90
22008;DHT22;11168;56.976;24.168;2023-12-07T09:52:35;-4.30;99.90
22008;DHT22;11168;56.976;24.168;2023-12-07T09:55:04;-4.30;99.90
22008;DHT22;11168;56.976;24.168;2023-12-07T09:57:31;-4.30;99.90
22008;DHT22;11168;56.976;24.168;2023-12-07T10:00:02;-4.30;99.90
22008;DHT22;11168;56.976;24.168;2023-12-07T10:02:31;-4.20;99.90
22008;DHT22;11168;56.976;24.168;2023-12-07T10:05:11;-4.20;99.90
22008;DHT22;11168;56.976;24.168;2023-12-07T10:07:41;-4.20;99.90
22008;DHT22;11168;56.976;24.168;2023-12-07T10:10:09;-4.10;99.90
22008;DHT22;11168;56.976;24.168;2023-12-07T10:12:50;-4.10;99.90
22008;DHT22;11168;56.976;24.168;2023-12-07T10:15:20;-4.20;99.90
22008;DHT22;11168;56.976;24.168;2023-12-07T10:17:50;-4.10;99.90
22008;DHT22;11168;56.976;24.168;2023-12-07T10:20:19;-4.00;99.90
22008;DHT22;11168;56.976;24.168;2023-12-07T10:23:07;-4.00;99.90
22008;DHT22;11168;56.976;24.168;2023-12-07T10:25:42;-4.00;99.90
22008;DHT22;11168;56.976;24.168;2023-12-07T10:28:10;-4.00;99.90
22008;DHT22;11168;56.976;24.168;2023-12-07T10:30:41;-4.10;99.90
22008;DHT22;11168;56.976;24.168;2023-12-07T10:33:10;-4.00;99.90
22008;DHT22;11168;56.976;24.168;2023-12-07T10:35:40;-4.00;99.90
22008;DHT22;11168;56.976;24.168;2023-12-07T10:38:08;-4.00;99.90
22008;DHT22;11168;56.976;24.168;2023-12-07T10:40:36;-4.00;99.90
22008;DHT22;11168;56.976;24.168;2023-12-07T10:43:05;-4.00;99.90
22008;DHT22;11168;56.976;24.168;2023-12-07T10:45:34;-4.00;99.90
22008;DHT22;11168;56.976;24.168;2023-12-07T10:48:11;-4.00;99.90
22008;DHT22;11168;56.976;24.168;2023-12-07T10:50:42;-3.90;99.90
22008;DHT22;11168;56.976;24.168;2023-12-07T10:53:21;-3.90;99.90
22008;DHT22;11168;56.976;24.168;2023-12-07T10:56:00;-4.00;99.90
22008;DHT22;11168;56.976;24.168;2023-12-07T10:58:28;-4.00;99.90
22008;DHT22;11168;56.976;24.168;2023-12-07T11:00:59;-3.90;99.90
22008;DHT22;11168;56.976;24.168;2023-12-07T11:03:28;-3.90;99.90
22008;DHT22;11168;56.976;24.168;2023-12-07T11:05:56;-4.00;99.90
22008;DHT22;11168;56.976;24.168;2023-12-07T11:11:24;-4.10;99.90
22008;DHT22;11168;56.976;24.168;2023-12-07T11:14:04;-4.10;99.90
22008;DHT22;11168;56.976;24.168;2023-12-07T11:16:34;-4.10;99.90
22008;DHT22;11168;56.976;24.168;2023-12-07T11:19:02;-4.10;99.90
22008;DHT22;11168;56.976;24.168;2023-12-07T11:21:32;-4.00;99.90
22008;DHT22;11168;56.976;24.168;2023-12-07T11:24:03;-4.00;99.90
22008;DHT22;11168;56.976;24.168;2023-12-07T11:26:31;-4.10;99.90
22008;DHT22;11168;56.976;24.168;2023-12-07T11:28:59;-4.00;99.90
22008;DHT22;11168;56.976;24.168;2023-12-07T11:31:27;-4.00;99.90
22008;DHT22;11168;56.976;24.168;2023-12-07T11:33:54;-4.00;99.90
22008;DHT22;11168;56.976;24.168;2023-12-07T11:36:21;-4.00;99.90
22008;DHT22;11168;56.976;24.168;2023-12-07T11:41:51;-4.00;99.90
22008;DHT22;11168;56.976;24.168;2023-12-07T11:44:24;-3.90;99.90
22008;DHT22;11168;56.976;24.168;2023-12-07T11:46:52;-4.00;99.90
22008;DHT22;11168;56.976;24.168;2023-12-07T11:49:21;-3.90;99.90
22008;DHT22;11168;56.976;24.168;2023-12-07T11:52:12;-4.00;99.90
22008;DHT22;11168;56.976;24.168;2023-12-07T11:54:41;-4.00;99.90
22008;DHT22;11168;56.976;24.168;2023-12-07T11:57:09;-3.90;99.90
22008;DHT22;11168;56.976;24.168;2023-12-07T11:59:38;-3.90;99.90
22008;DHT22;11168;56.976;24.168;2023-12-07T12:02:06;-3.90;99.90
22008;DHT22;11168;56.976;24.168;2023-12-07T12:04:35;-3.90;99.90
22008;DHT22;11168;56.976;24.168;2023-12-07T12:07:04;-3.90;99.90
22008;DHT22;11168;56.976;24.168;2023-12-07T12:09:31;-3.90;99.90
22008;DHT22;11168;56.976;24.168;2023-12-07T12:12:01;-3.90;99.90
22008;DHT22;11168;56.976;24.168;2023-12-07T12:14:31;-3.80;99.90
22008;DHT22;11168;56.976;24.168;2023-12-07T12:16:59;-3.90;99.90
22008;DHT22;11168;56.976;24.168;2023-12-07T12:19:26;-3.90;99.90
22008;DHT22;11168;56.976;24.168;2023-12-07T12:22:03;-3.90;99.90
22008;DHT22;11168;56.976;24.168;2023-12-07T12:24:40;-3.80;99.90
22008;DHT22;11168;56.976;24.168;2023-12-07T12:27:07;-3.80;99.90
22008;DHT22;11168;56.976;24.168;2023-12-07T12:29:35;-3.80;99.90
22008;DHT22;11168;56.976;24.168;2023-12-07T12:32:03;-3.80;99.90
22008;DHT22;11168;56.976;24.168;2023-12-07T12:34:35;-3.80;99.90
22008;DHT22;11168;56.976;24.168;2023-12-07T12:37:05;-3.80;99.90
22008;DHT22;11168;56.976;24.168;2023-12-07T12:39:33;-3.80;99.90
22008;DHT22;11168;56.976;24.168;2023-12-07T12:42:02;-3.70;99.90
22008;DHT22;11168;56.976;24.168;2023-12-07T12:44:38;-3.80;99.90
22008;DHT22;11168;56.976;24.168;2023-12-07T12:47:06;-3.80;99.90
22008;DHT22;11168;56.976;24.168;2023-12-07T12:49:40;-3.70;99.90
22008;DHT22;11168;56.976;24.168;2023-12-07T12:52:11;-3.70;99.90
22008;DHT22;11168;56.976;24.168;2023-12-07T12:54:42;-3.70;99.90
22008;DHT22;11168;56.976;24.168;2023-12-07T12:57:10;-3.70;99.90
22008;DHT22;11168;56.976;24.168;2023-12-07T12:59:39;-3.70;99.90
22008;DHT22;11168;56.976;24.168;2023-12-07T13:02:07;-3.70;99.90
22008;DHT22;11168;56.976;24.168;2023-12-07T13:04:37;-3.70;99.90
22008;DHT22;11168;56.976;24.168;2023-12-07T13:07:08;-3.70;99.90
22008;DHT22;11168;56.976;24.168;2023-12-07T13:09:35;-3.70;99.90
22008;DHT22;11168;56.976;24.168;2023-12-07T13:12:03;-3.70;99.90
22008;DHT22;11168;56.976;24.168;2023-12-07T13:14:35;-3.70;99.90
22008;DHT22;11168;56.976;24.168;2023-12-07T13:17:06;-3.70;99.90
22008;DHT22;11168;56.976;24.168;2023-12-07T13:19:36;-3.70;99.90
22008;DHT22;11168;56.976;24.168;2023-12-07T13:22:04;-3.70;99.90
22008;DHT22;11168;56.976;24.168;2023-12-07T13:24:34;-3.70;99.90
22008;DHT22;11168;56.976;24.168;2023-12-07T13:27:01;-3.70;99.90
22008;DHT22;11168;56.976;24.168;2023-12-07T13:29:29;-3.70;99.90
22008;DHT22;11168;56.976;24.168;2023-12-07T13:32:03;-3.70;99.90
22008;DHT22;11168;56.976;24.168;2023-12-07T13:34:31;-3.70;99.90
22008;DHT22;11168;56.976;24.168;2023-12-07T13:36:58;-3.60;99.90
22008;DHT22;11168;56.976;24.168;2023-12-07T13:39:27;-3.70;99.90
22008;DHT22;11168;56.976;24.168;2023-12-07T13:41:58;-3.70;99.90
22008;DHT22;11168;56.976;24.168;2023-12-07T13:44:27;-3.70;99.90
22008;DHT22;11168;56.976;24.168;2023-12-07T13:46:55;-3.60;99.90
22008;DHT22;11168;56.976;24.168;2023-12-07T13:49:24;-3.70;99.90
22008;DHT22;11168;56.976;24.168;2023-12-07T13:52:01;-3.70;99.90
22008;DHT22;11168;56.976;24.168;2023-12-07T13:54:38;-3.70;99.90
22008;DHT22;11168;56.976;24.168;2023-12-07T13:57:23;-3.70;99.90
22008;DHT22;11168;56.976;24.168;2023-12-07T13:59:54;-3.70;99.90
22008;DHT22;11168;56.976;24.168;2023-12-07T14:02:23;-3.70;99.90
22008;DHT22;11168;56.976;24.168;2023-12-07T14:04:50;-3.70;99.90
22008;DHT22;11168;56.976;24.168;2023-12-07T14:07:19;-3.70;99.90
22008;DHT22;11168;56.976;24.168;2023-12-07T14:09:49;-3.70;99.90
22008;DHT22;11168;56.976;24.168;2023-12-07T14:12:25;-3.70;99.90
22008;DHT22;11168;56.976;24.168;2023-12-07T14:14:53;-3.70;99.90
22008;DHT22;11168;56.976;24.168;2023-12-07T14:17:23;-3.80;99.90
22008;DHT22;11168;56.976;24.168;2023-12-07T14:19:53;-3.70;99.90
22008;DHT22;11168;56.976;24.168;2023-12-07T14:22:36;-3.80;99.90
22008;DHT22;11168;56.976;24.168;2023-12-07T14:25:05;-3.80;99.90
22008;DHT22;11168;56.976;24.168;2023-12-07T14:27:32;-3.80;99.90
22008;DHT22;11168;56.976;24.168;2023-12-07T14:30:00;-3.70;99.90
22008;DHT22;11168;56.976;24.168;2023-12-07T14:32:30;-3.80;99.90
22008;DHT22;11168;56.976;24.168;2023-12-07T14:34:58;-3.80;99.90
22008;DHT22;11168;56.976;24.168;2023-12-07T14:37:25;-3.80;99.90
22008;DHT22;11168;56.976;24.168;2023-12-07T14:39:54;-3.90;99.90
22008;DHT22;11168;56.976;24.168;2023-12-07T14:42:21;-3.90;99.90
22008;DHT22;11168;56.976;24.168;2023-12-07T14:44:50;-3.90;99.90
22008;DHT22;11168;56.976;24.168;2023-12-07T14:47:18;-3.90;99.90
22008;DHT22;11168;56.976;24.168;2023-12-07T14:49:45;-3.90;99.90
22008;DHT22;11168;56.976;24.168;2023-12-07T14:52:12;-3.90;99.90
22008;DHT22;11168;56.976;24.168;2023-12-07T14:54:40;-4.00;99.90
22008;DHT22;11168;56.976;24.168;2023-12-07T14:57:07;-4.00;99.90
22008;DHT22;11168;56.976;24.168;2023-12-07T14:59:36;-4.00;99.90
22008;DHT22;11168;56.976;24.168;2023-12-07T15:02:04;-4.00;99.90
22008;DHT22;11168;56.976;24.168;2023-12-07T15:04:31;-4.10;99.90
22008;DHT22;11168;56.976;24.168;2023-12-07T15:07:01;-4.00;99.90
22008;DHT22;11168;56.976;24.168;2023-12-07T15:09:31;-4.10;99.90
22008;DHT22;11168;56.976;24.168;2023-12-07T15:11:59;-4.10;99.90
22008;DHT22;11168;56.976;24.168;2023-12-07T15:14:27;-4.20;99.90
22008;DHT22;11168;56.976;24.168;2023-12-07T15:17:05;-4.20;99.90
22008;DHT22;11168;56.976;24.168;2023-12-07T15:19:33;-4.20;99.90
22008;DHT22;11168;56.976;24.168;2023-12-07T15:22:01;-4.20;99.90
22008;DHT22;11168;56.976;24.168;2023-12-07T15:24:28;-4.20;99.90
22008;DHT22;11168;56.976;24.168;2023-12-07T15:27:05;-4.20;99.90
22008;DHT22;11168;56.976;24.168;2023-12-07T15:29:33;-4.20;99.90
22008;DHT22;11168;56.976;24.168;2023-12-07T15:32:05;-4.20;99.90
22008;DHT22;11168;56.976;24.168;2023-12-07T15:34:34;-4.30;99.90
22008;DHT22;11168;56.976;24.168;2023-12-07T15:37:07;-4.30;99.90